createdAt,value
2019-03-30T00:00:46.658Z,15.50
2019-03-30T00:03:18.172Z,15.50
2019-03-30T00:05:49.665Z,15.50
2019-03-30T00:08:21.203Z,15.50
2019-03-30T00:10:52.559Z,15.40
2019-03-30T00:13:23.958Z,15.40
2019-03-30T00:15:55.403Z,15.40
2019-03-30T00:18:26.801Z,15.40
2019-03-30T00:20:58.157Z,15.30
2019-03-30T00:23:29.559Z,15.30
2019-03-30T00:26:01.074Z,15.30
2019-03-30T00:28:32.591Z,15.30
2019-03-30T00:31:04.052Z,15.30
2019-03-30T00:33:35.561Z,15.30
2019-03-30T00:36:07.053Z,15.30
2019-03-30T00:38:38.720Z,15.20
2019-03-30T00:41:10.030Z,15.20
2019-03-30T00:43:41.527Z,15.20
2019-03-30T00:46:12.889Z,15.20
2019-03-30T00:48:45.419Z,15.20
2019-03-30T00:51:16.951Z,15.20
2019-03-30T00:53:48.451Z,15.20
2019-03-30T00:56:21.636Z,15.10
2019-03-30T00:58:53.045Z,15.10
2019-03-30T01:01:24.403Z,15.10
2019-03-30T01:03:55.869Z,15.10
2019-03-30T01:06:27.332Z,15.10
2019-03-30T01:08:58.724Z,15.10
2019-03-30T01:11:30.184Z,15.00
2019-03-30T01:14:01.704Z,15.00
2019-03-30T01:16:33.144Z,15.00
2019-03-30T01:19:04.728Z,15.00
2019-03-30T01:21:36.121Z,15.00
2019-03-30T01:24:07.521Z,15.00
2019-03-30T01:26:38.967Z,14.90
2019-03-30T01:29:10.375Z,14.90
2019-03-30T01:31:41.807Z,14.90
2019-03-30T01:34:13.315Z,14.90
2019-03-30T01:36:44.713Z,14.90
2019-03-30T01:39:16.143Z,14.90
2019-03-30T01:41:47.696Z,14.90
2019-03-30T01:44:19.081Z,14.90
2019-03-30T01:46:50.531Z,14.80
2019-03-30T01:49:22.069Z,14.80
2019-03-30T01:51:53.470Z,14.80
2019-03-30T01:54:24.870Z,14.80
2019-03-30T01:56:56.379Z,14.80
2019-03-30T01:59:27.757Z,14.80
2019-03-30T02:01:59.245Z,14.80
2019-03-30T02:04:30.669Z,14.70
2019-03-30T02:07:02.129Z,14.70
2019-03-30T02:09:33.589Z,14.70
2019-03-30T02:12:05.014Z,14.70
2019-03-30T02:14:36.546Z,14.70
2019-03-30T02:17:07.922Z,14.60
2019-03-30T02:19:39.538Z,14.60
2019-03-30T02:22:10.947Z,14.60
2019-03-30T02:24:42.521Z,14.60
2019-03-30T02:27:13.886Z,14.60
2019-03-30T02:29:45.356Z,14.60
2019-03-30T02:32:16.809Z,14.50
2019-03-30T02:34:48.351Z,14.50
2019-03-30T02:37:19.705Z,14.50
2019-03-30T02:39:51.121Z,14.50
2019-03-30T02:42:22.489Z,14.50
2019-03-30T02:44:53.879Z,14.50
2019-03-30T02:47:25.300Z,14.40
2019-03-30T02:49:56.710Z,14.40
2019-03-30T02:52:28.153Z,14.40
2019-03-30T02:54:59.599Z,14.40
2019-03-30T02:57:31.067Z,14.40
2019-03-30T03:00:02.549Z,14.40
2019-03-30T03:02:33.925Z,14.40
2019-03-30T03:05:05.660Z,14.40
2019-03-30T03:07:37.062Z,14.40
2019-03-30T03:10:08.855Z,14.40
2019-03-30T03:12:40.309Z,14.40
2019-03-30T03:15:12.201Z,14.30
2019-03-30T03:17:43.683Z,14.30
2019-03-30T03:20:15.476Z,14.30
2019-03-30T03:22:46.950Z,14.30
2019-03-30T03:25:18.468Z,14.30
2019-03-30T03:27:50.016Z,14.30
2019-03-30T03:30:21.643Z,14.30
2019-03-30T03:32:52.951Z,14.30
2019-03-30T03:35:24.481Z,14.30
2019-03-30T03:37:55.837Z,14.30
2019-03-30T03:40:27.376Z,14.30
2019-03-30T03:42:58.854Z,14.20
2019-03-30T03:45:30.374Z,14.20
2019-03-30T03:48:03.223Z,14.20
2019-03-30T03:50:46.201Z,14.20
2019-03-30T03:53:18.620Z,14.20
2019-03-30T03:55:50.919Z,14.20
2019-03-30T03:58:42.762Z,14.20
2019-03-30T04:01:18.648Z,14.20
2019-03-30T04:03:53.212Z,14.20
2019-03-30T04:06:27.759Z,14.10
2019-03-30T04:09:02.786Z,14.10
2019-03-30T04:11:35.917Z,14.10
2019-03-30T04:14:08.747Z,14.10
2019-03-30T04:16:40.421Z,14.10
2019-03-30T04:19:12.052Z,14.10
2019-03-30T04:21:44.895Z,14.10
2019-03-30T04:24:16.801Z,14.10
2019-03-30T04:26:48.350Z,14.10
2019-03-30T04:29:19.730Z,14.00
2019-03-30T04:31:51.127Z,14.00
2019-03-30T04:34:22.535Z,14.00
2019-03-30T04:36:53.917Z,14.00
2019-03-30T04:39:25.406Z,14.00
2019-03-30T04:41:57.905Z,14.00
2019-03-30T04:44:29.325Z,13.90
2019-03-30T04:47:00.701Z,13.90
2019-03-30T04:49:32.073Z,13.90
2019-03-30T04:52:03.526Z,13.90
2019-03-30T04:54:34.914Z,13.90
2019-03-30T04:57:06.378Z,13.90
2019-03-30T04:59:37.995Z,13.90
2019-03-30T05:02:09.559Z,13.90
2019-03-30T05:04:40.928Z,13.90
2019-03-30T05:07:12.277Z,13.90
2019-03-30T05:09:43.766Z,13.90
2019-03-30T05:12:15.199Z,13.90
2019-03-30T05:14:46.634Z,13.90
2019-03-30T05:17:18.073Z,13.90
2019-03-30T05:19:51.054Z,14.00
2019-03-30T05:22:22.453Z,14.00
2019-03-30T05:24:53.869Z,14.00
2019-03-30T05:27:25.364Z,14.00
2019-03-30T05:29:56.847Z,14.00
2019-03-30T05:32:28.357Z,14.00
2019-03-30T05:34:59.886Z,14.10
2019-03-30T05:37:31.250Z,14.10
2019-03-30T05:40:02.739Z,14.10
2019-03-30T05:42:34.129Z,14.10
2019-03-30T05:45:05.788Z,14.10
2019-03-30T05:47:37.277Z,14.20
2019-03-30T05:50:09.152Z,14.20
2019-03-30T05:52:40.564Z,14.20
2019-03-30T05:55:12.102Z,14.30
2019-03-30T05:57:43.569Z,14.30
2019-03-30T06:00:18.755Z,14.30
2019-03-30T06:02:50.153Z,14.40
2019-03-30T06:05:21.538Z,14.40
2019-03-30T06:07:53.110Z,14.40
2019-03-30T06:10:24.673Z,14.50
2019-03-30T06:12:56.827Z,14.50
2019-03-30T06:15:28.215Z,14.60
2019-03-30T06:17:59.589Z,14.60
2019-03-30T06:20:31.004Z,14.70
2019-03-30T06:23:02.438Z,14.80
2019-03-30T06:25:33.934Z,14.80
2019-03-30T06:28:05.449Z,14.80
2019-03-30T06:30:36.949Z,14.90
2019-03-30T06:33:08.378Z,14.90
2019-03-30T06:35:39.881Z,15.00
2019-03-30T06:38:11.257Z,15.10
2019-03-30T06:40:42.702Z,15.10
2019-03-30T06:43:14.063Z,15.20
2019-03-30T06:45:45.485Z,15.20
2019-03-30T06:48:16.844Z,15.30
2019-03-30T06:50:48.373Z,15.30
2019-03-30T06:53:38.543Z,15.40
2019-03-30T06:56:10.117Z,15.50
2019-03-30T06:58:41.616Z,15.50
2019-03-30T07:01:13.582Z,15.60
2019-03-30T07:03:45.820Z,15.70
2019-03-30T07:06:19.355Z,15.70
2019-03-30T07:08:54.240Z,15.80
2019-03-30T07:11:28.557Z,15.90
2019-03-30T07:14:04.160Z,16.00
2019-03-30T07:16:39.522Z,16.10
2019-03-30T07:19:10.875Z,16.20
2019-03-30T07:21:43.760Z,16.30
2019-03-30T07:24:33.953Z,16.40
2019-03-30T07:27:05.517Z,16.50
2019-03-30T07:29:37.028Z,16.60
2019-03-30T07:32:08.642Z,16.70
2019-03-30T07:34:41.697Z,16.80
2019-03-30T07:37:13.107Z,16.90
2019-03-30T07:39:44.546Z,17.10
2019-03-30T07:42:16.108Z,17.40
2019-03-30T07:44:47.630Z,17.60
2019-03-30T07:47:19.034Z,18.00
2019-03-30T07:49:50.563Z,18.30
2019-03-30T07:52:22.001Z,18.80
2019-03-30T07:54:53.437Z,19.30
2019-03-30T07:57:24.849Z,19.80
2019-03-30T07:59:56.392Z,20.30
2019-03-30T08:02:27.907Z,20.80
2019-03-30T08:04:59.397Z,21.30
2019-03-30T08:07:30.875Z,21.70
2019-03-30T08:10:02.353Z,22.20
2019-03-30T08:12:34.069Z,22.70
2019-03-30T08:15:06.074Z,23.20
2019-03-30T08:17:37.561Z,23.70
2019-03-30T08:20:10.219Z,24.20
2019-03-30T08:22:41.876Z,24.60
2019-03-30T08:25:15.076Z,25.10
2019-03-30T08:27:46.678Z,25.50
2019-03-30T08:30:18.558Z,25.90
2019-03-30T08:32:50.075Z,26.40
2019-03-30T08:35:21.576Z,26.70
2019-03-30T08:37:53.156Z,27.00
2019-03-30T08:40:24.552Z,27.30
2019-03-30T08:42:56.321Z,27.50
2019-03-30T08:45:27.875Z,27.70
2019-03-30T08:47:59.472Z,27.90
2019-03-30T08:50:30.862Z,27.80
2019-03-30T08:53:02.350Z,27.50
2019-03-30T08:55:33.803Z,27.10
2019-03-30T08:58:05.302Z,26.60
2019-03-30T09:00:44.029Z,26.10
2019-03-30T09:03:15.606Z,25.60
2019-03-30T09:06:05.862Z,25.20
2019-03-30T09:08:37.504Z,24.80
2019-03-30T09:11:08.914Z,24.50
2019-03-30T09:13:40.302Z,24.20
2019-03-30T09:16:11.697Z,23.90
2019-03-30T09:18:43.188Z,23.70
2019-03-30T09:21:14.649Z,23.50
2019-03-30T09:23:46.326Z,23.30
2019-03-30T09:26:17.683Z,23.10
2019-03-30T09:28:49.109Z,23.00
2019-03-30T09:31:20.564Z,22.80
2019-03-30T09:33:52.159Z,22.70
2019-03-30T09:36:23.531Z,22.60
2019-03-30T09:38:55.038Z,22.40
2019-03-30T09:41:26.507Z,22.30
2019-03-30T09:43:58.268Z,22.20
2019-03-30T09:46:29.714Z,22.20
2019-03-30T09:49:01.368Z,22.10
2019-03-30T09:51:32.815Z,22.00
2019-03-30T09:54:04.400Z,21.90
2019-03-30T09:56:35.890Z,21.90
2019-03-30T09:59:07.420Z,21.80
2019-03-30T10:01:38.859Z,21.80
2019-03-30T10:04:10.356Z,21.70
2019-03-30T10:06:41.819Z,21.60
2019-03-30T10:09:13.246Z,21.60
2019-03-30T10:11:44.601Z,21.60
2019-03-30T10:14:16.194Z,21.50
2019-03-30T10:16:48.828Z,21.50
2019-03-30T10:19:20.287Z,21.40
2019-03-30T10:21:51.785Z,21.40
2019-03-30T10:24:37.163Z,21.40
2019-03-30T10:26:56.410Z,21.30
2019-03-30T10:29:27.896Z,21.30
2019-03-30T10:32:00.009Z,21.30
2019-03-30T10:34:31.707Z,21.30
2019-03-30T10:37:03.239Z,21.20
2019-03-30T10:39:35.894Z,21.20
2019-03-30T10:42:07.413Z,21.20
2019-03-30T10:44:38.848Z,21.20
2019-03-30T10:47:10.358Z,21.20
2019-03-30T10:49:41.771Z,21.20
2019-03-30T10:52:13.295Z,21.20
2019-03-30T10:54:52.675Z,21.10
2019-03-30T10:57:18.035Z,21.10
2019-03-30T10:59:49.460Z,21.10
2019-03-30T11:02:20.815Z,21.10
2019-03-30T11:04:52.217Z,21.10
2019-03-30T11:07:23.756Z,21.10
2019-03-30T11:09:55.273Z,21.10
2019-03-30T11:12:26.873Z,21.10
2019-03-30T11:14:58.424Z,21.10
2019-03-30T11:17:29.743Z,21.10
2019-03-30T11:20:01.174Z,21.10
2019-03-30T11:22:32.753Z,21.10
2019-03-30T11:25:07.779Z,21.10
2019-03-30T11:27:37.526Z,21.10
2019-03-30T11:30:09.378Z,21.10
2019-03-30T11:32:40.774Z,21.10
2019-03-30T11:35:12.280Z,21.10
2019-03-30T11:37:43.792Z,21.10
2019-03-30T11:40:15.197Z,21.10
2019-03-30T11:42:46.697Z,21.00
2019-03-30T11:45:18.198Z,21.10
2019-03-30T11:47:49.650Z,21.00
2019-03-30T11:50:21.074Z,21.00
2019-03-30T11:52:52.672Z,21.00
2019-03-30T11:55:24.067Z,21.00
2019-03-30T11:57:55.572Z,21.00
2019-03-30T12:00:27.102Z,21.00
2019-03-30T12:02:58.462Z,21.10
2019-03-30T12:05:30.064Z,21.00
2019-03-30T12:08:01.544Z,21.10
2019-03-30T12:10:33.129Z,21.10
2019-03-30T12:13:04.597Z,21.10
2019-03-30T12:15:36.005Z,21.10
2019-03-30T12:18:07.750Z,21.10
2019-03-30T12:20:39.138Z,21.10
2019-03-30T12:23:10.580Z,21.10
2019-03-30T12:25:41.988Z,21.10
2019-03-30T12:28:13.450Z,21.10
2019-03-30T12:30:44.826Z,21.10
2019-03-30T12:33:16.242Z,21.10
2019-03-30T12:35:47.710Z,21.10
2019-03-30T12:38:19.116Z,21.10
2019-03-30T12:40:50.475Z,21.10
2019-03-30T12:43:21.977Z,21.10
2019-03-30T12:45:53.492Z,21.10
2019-03-30T12:48:24.997Z,21.10
2019-03-30T12:50:56.633Z,21.10
2019-03-30T12:53:28.057Z,21.10
2019-03-30T12:55:59.536Z,21.20
2019-03-30T12:58:31.243Z,21.20
2019-03-30T13:01:02.783Z,21.20
2019-03-30T13:03:34.185Z,21.20
2019-03-30T13:06:05.642Z,21.20
2019-03-30T13:08:37.062Z,21.20
2019-03-30T13:11:08.477Z,21.20
2019-03-30T13:13:40.070Z,21.20
2019-03-30T13:16:11.450Z,21.20
2019-03-30T13:18:43.961Z,21.20
2019-03-30T13:21:15.426Z,21.20
2019-03-30T13:23:46.811Z,21.20
2019-03-30T13:26:18.392Z,21.20
2019-03-30T13:28:49.870Z,21.20
2019-03-30T13:31:21.344Z,21.20
2019-03-30T13:33:52.923Z,21.20
2019-03-30T13:36:43.770Z,21.20
2019-03-30T13:39:15.152Z,21.20
2019-03-30T13:41:46.546Z,21.20
2019-03-30T13:44:17.942Z,21.20
2019-03-30T13:46:49.389Z,21.20
2019-03-30T13:49:20.956Z,21.20
2019-03-30T13:51:52.345Z,21.30
2019-03-30T13:54:23.748Z,21.30
2019-03-30T13:56:55.118Z,21.30
2019-03-30T13:59:26.592Z,21.30
2019-03-30T14:02:16.798Z,21.30
2019-03-30T14:04:48.189Z,21.30
2019-03-30T14:07:19.662Z,21.30
2019-03-30T14:09:51.333Z,21.30
2019-03-30T14:12:22.740Z,21.30
2019-03-30T14:14:55.561Z,21.30
2019-03-30T14:17:27.450Z,21.30
2019-03-30T14:19:58.857Z,21.30
2019-03-30T14:22:31.688Z,21.30
2019-03-30T14:25:03.272Z,21.30
2019-03-30T14:27:34.761Z,21.30
2019-03-30T14:30:07.662Z,21.30
2019-03-30T14:32:39.033Z,21.30
2019-03-30T14:35:10.681Z,21.30
2019-03-30T14:37:42.041Z,21.30
2019-03-30T14:40:13.543Z,21.30
2019-03-30T14:42:45.021Z,21.40
2019-03-30T14:45:17.008Z,21.40
2019-03-30T14:47:48.386Z,21.40
2019-03-30T14:50:20.129Z,21.40
2019-03-30T14:52:51.619Z,21.40
2019-03-30T14:55:23.008Z,21.40
2019-03-30T14:57:54.358Z,21.40
2019-03-30T15:00:25.937Z,21.40
2019-03-30T15:02:57.394Z,21.40
2019-03-30T15:05:28.855Z,21.40
2019-03-30T15:08:00.311Z,21.40
2019-03-30T15:10:31.718Z,21.40
2019-03-30T15:13:03.111Z,21.40
2019-03-30T15:15:34.625Z,21.40
2019-03-30T15:18:06.171Z,21.40
2019-03-30T15:20:37.639Z,21.40
2019-03-30T15:23:09.123Z,21.40
2019-03-30T15:25:40.590Z,21.40
2019-03-30T15:28:11.958Z,21.40
2019-03-30T15:30:43.552Z,21.40
2019-03-30T15:33:14.934Z,21.40
2019-03-30T15:35:46.433Z,21.50
2019-03-30T15:38:17.994Z,21.40
2019-03-30T15:40:49.405Z,21.50
2019-03-30T15:43:20.910Z,21.50
2019-03-30T15:45:52.378Z,21.40
2019-03-30T15:48:28.106Z,21.50
2019-03-30T15:50:58.055Z,21.40
2019-03-30T15:53:29.449Z,21.50
2019-03-30T15:56:00.941Z,21.50
2019-03-30T15:58:32.330Z,21.50
2019-03-30T16:01:04.016Z,21.50
2019-03-30T16:03:35.486Z,21.50
2019-03-30T16:06:07.143Z,21.50
2019-03-30T16:08:38.707Z,21.40
2019-03-30T16:11:10.121Z,21.40
2019-03-30T16:13:41.586Z,21.40
2019-03-30T16:16:13.119Z,21.40
2019-03-30T16:18:44.478Z,21.40
2019-03-30T16:21:16.100Z,21.40
2019-03-30T16:23:47.475Z,21.40
2019-03-30T16:26:19.047Z,21.40
2019-03-30T16:28:50.525Z,21.40
2019-03-30T16:31:22.007Z,21.40
2019-03-30T16:33:53.402Z,21.40
2019-03-30T16:36:24.781Z,21.40
2019-03-30T16:38:56.266Z,21.40
2019-03-30T16:41:27.648Z,21.40
2019-03-30T16:43:59.031Z,21.40
2019-03-30T16:46:30.531Z,21.40
2019-03-30T16:49:01.922Z,21.40
2019-03-30T16:51:33.357Z,21.40
2019-03-30T16:54:04.992Z,21.40
2019-03-30T16:56:36.409Z,21.40
2019-03-30T16:59:08.023Z,21.40
2019-03-30T17:01:39.615Z,21.30
2019-03-30T17:04:11.074Z,21.30
2019-03-30T17:06:42.587Z,21.30
2019-03-30T17:09:13.980Z,21.30
2019-03-30T17:11:45.482Z,21.30
2019-03-30T17:14:18.740Z,21.30
2019-03-30T17:16:50.342Z,21.30
2019-03-30T17:19:21.796Z,21.30
2019-03-30T17:21:53.181Z,21.30
2019-03-30T17:24:24.555Z,21.30
2019-03-30T17:26:56.242Z,21.30
2019-03-30T17:29:27.633Z,21.30
2019-03-30T17:31:59.084Z,21.20
2019-03-30T17:34:30.523Z,21.20
2019-03-30T17:37:02.097Z,21.20
2019-03-30T17:39:33.487Z,21.10
2019-03-30T17:42:05.121Z,21.10
2019-03-30T17:44:36.775Z,21.10
2019-03-30T17:47:08.301Z,21.10
2019-03-30T17:49:39.653Z,21.00
2019-03-30T17:52:11.102Z,21.00
2019-03-30T17:54:42.467Z,21.00
2019-03-30T17:57:17.335Z,21.00
2019-03-30T17:59:47.092Z,21.00
2019-03-30T18:02:18.571Z,20.90
2019-03-30T18:04:49.939Z,20.90
2019-03-30T18:07:21.446Z,20.80
2019-03-30T18:09:52.827Z,20.80
2019-03-30T18:12:24.287Z,20.80
2019-03-30T18:14:55.682Z,20.70
2019-03-30T18:17:27.084Z,20.70
2019-03-30T18:19:58.468Z,20.70
2019-03-30T18:22:30.056Z,20.60
2019-03-30T18:25:01.463Z,20.60
2019-03-30T18:27:32.953Z,20.60
2019-03-30T18:30:04.596Z,20.50
2019-03-30T18:32:36.419Z,20.50
2019-03-30T18:35:08.275Z,20.40
2019-03-30T18:37:40.302Z,20.40
2019-03-30T18:40:20.422Z,20.40
2019-03-30T18:42:52.018Z,20.30
2019-03-30T18:45:29.274Z,20.20
2019-03-30T18:48:20.858Z,20.20
2019-03-30T18:50:52.307Z,20.20
2019-03-30T18:53:23.876Z,20.20
2019-03-30T18:55:55.346Z,20.10
2019-03-30T18:58:40.730Z,20.10
2019-03-30T19:01:00.392Z,20.00
2019-03-30T19:03:31.885Z,20.00
2019-03-30T19:06:03.805Z,20.00
2019-03-30T19:08:35.264Z,19.90
2019-03-30T19:11:06.775Z,19.90
2019-03-30T19:13:38.235Z,19.90
2019-03-30T19:16:09.811Z,19.80
2019-03-30T19:18:41.332Z,19.80
2019-03-30T19:21:12.848Z,19.70
2019-03-30T19:23:44.312Z,19.70
2019-03-30T19:26:15.884Z,19.70
2019-03-30T19:28:56.284Z,19.70
2019-03-30T19:31:20.982Z,19.60
2019-03-30T19:33:52.556Z,19.60
2019-03-30T19:36:24.080Z,19.60
2019-03-30T19:38:55.519Z,19.50
2019-03-30T19:41:26.962Z,19.50
2019-03-30T19:43:58.656Z,19.50
2019-03-30T19:46:30.197Z,19.40
2019-03-30T19:49:01.751Z,19.40
2019-03-30T19:51:33.305Z,19.40
2019-03-30T19:54:05.018Z,19.30
2019-03-30T19:56:36.399Z,19.30
2019-03-30T19:59:10.973Z,19.30
2019-03-30T20:01:41.216Z,19.20
2019-03-30T20:04:12.814Z,19.20
2019-03-30T20:06:45.506Z,19.20
2019-03-30T20:09:20.609Z,19.10
2019-03-30T20:11:50.185Z,19.10
2019-03-30T20:14:21.711Z,19.10
2019-03-30T20:16:53.112Z,19.10
2019-03-30T20:19:24.651Z,19.00
2019-03-30T20:21:57.459Z,19.00
2019-03-30T20:24:30.965Z,19.00
2019-03-30T20:27:02.465Z,18.90
2019-03-30T20:29:33.952Z,18.90
2019-03-30T20:32:05.426Z,18.90
2019-03-30T20:34:36.934Z,18.90
2019-03-30T20:37:08.465Z,18.80
2019-03-30T20:39:40.009Z,18.80
2019-03-30T20:42:11.551Z,18.80
2019-03-30T20:44:43.031Z,18.80
2019-03-30T20:47:14.604Z,18.80
2019-03-30T20:49:46.128Z,18.70
2019-03-30T20:52:17.567Z,18.70
2019-03-30T20:54:49.165Z,18.70
2019-03-30T20:57:20.648Z,18.70
2019-03-30T20:59:52.178Z,18.70
2019-03-30T21:02:23.591Z,18.70
2019-03-30T21:04:54.998Z,18.60
2019-03-30T21:07:26.395Z,18.60
2019-03-30T21:09:58.053Z,18.60
2019-03-30T21:12:29.648Z,18.60
2019-03-30T21:15:01.031Z,18.50
2019-03-30T21:17:32.627Z,18.50
2019-03-30T21:20:04.974Z,18.50
2019-03-30T21:22:36.368Z,18.50
2019-03-30T21:25:08.070Z,18.50
2019-03-30T21:27:39.468Z,18.40
2019-03-30T21:30:14.345Z,18.40
2019-03-30T21:32:45.805Z,18.40
2019-03-30T21:35:17.367Z,18.40
2019-03-30T21:37:48.904Z,18.40
2019-03-30T21:40:20.310Z,18.40
2019-03-30T21:42:51.779Z,18.40
2019-03-30T21:45:23.195Z,18.30
2019-03-30T21:47:54.680Z,18.30
2019-03-30T21:50:26.452Z,18.30
2019-03-30T21:52:58.038Z,18.30
2019-03-30T21:55:29.535Z,18.30
2019-03-30T21:58:00.950Z,18.30
2019-03-30T22:00:38.127Z,18.20
2019-03-30T22:03:09.550Z,18.20
2019-03-30T22:05:41.512Z,18.20
2019-03-30T22:08:13.075Z,18.20
2019-03-30T22:10:44.728Z,18.20
2019-03-30T22:13:16.385Z,18.20
2019-03-30T22:15:47.848Z,18.10
2019-03-30T22:18:19.372Z,18.10
2019-03-30T22:20:50.836Z,18.10
2019-03-30T22:23:22.253Z,18.10
2019-03-30T22:25:53.724Z,18.10
2019-03-30T22:28:25.330Z,18.10
2019-03-30T22:30:57.000Z,18.10
2019-03-30T22:33:30.757Z,18.00
2019-03-30T22:36:01.616Z,18.00
2019-03-30T22:38:33.007Z,18.00
2019-03-30T22:41:04.602Z,18.00
2019-03-30T22:43:36.163Z,18.00
2019-03-30T22:46:07.926Z,17.90
2019-03-30T22:48:39.627Z,17.90
2019-03-30T22:51:11.029Z,17.90
2019-03-30T22:53:42.538Z,17.90
2019-03-30T22:56:14.030Z,17.90
2019-03-30T22:58:45.540Z,17.80
2019-03-30T23:01:19.172Z,17.80
2019-03-30T23:03:50.878Z,17.80
2019-03-30T23:06:22.410Z,17.80
2019-03-30T23:08:53.989Z,17.80
2019-03-30T23:11:25.444Z,17.70
2019-03-30T23:13:56.827Z,17.70
2019-03-30T23:16:28.193Z,17.70
2019-03-30T23:18:59.643Z,17.70
2019-03-30T23:21:31.154Z,17.70
2019-03-30T23:24:02.537Z,17.60
2019-03-30T23:26:33.889Z,17.60
2019-03-30T23:29:05.329Z,17.60
2019-03-30T23:31:36.844Z,17.60
2019-03-30T23:34:08.410Z,17.60
2019-03-30T23:36:39.802Z,17.60
2019-03-30T23:39:11.430Z,17.50
2019-03-30T23:41:42.972Z,17.50
2019-03-30T23:44:14.462Z,17.50
2019-03-30T23:46:45.874Z,17.50
2019-03-30T23:49:17.456Z,17.40
2019-03-30T23:51:49.038Z,17.40
2019-03-30T23:54:20.470Z,17.40
2019-03-30T23:56:51.856Z,17.40
2019-03-30T23:59:23.345Z,17.40
